createdAt,value
2023-04-04T00:02:01.835Z,54.38
2023-04-04T00:05:45.067Z,54.44
2023-04-04T00:09:27.706Z,54.84
2023-04-04T00:13:10.453Z,55.23
2023-04-04T00:16:54.524Z,54.56
2023-04-04T00:20:37.360Z,54.49
2023-04-04T00:24:20.133Z,55.08
2023-04-04T00:28:03.190Z,54.83
2023-04-04T00:31:45.961Z,55.27
2023-04-04T00:35:29.968Z,54.87
2023-04-04T00:39:12.675Z,55.11
2023-04-04T00:42:55.595Z,55.36
2023-04-04T00:46:38.335Z,54.71
2023-04-04T00:50:21.052Z,54.16
2023-04-04T00:54:05.431Z,54.44
2023-04-04T00:57:48.247Z,54.24
2023-04-04T01:01:31.583Z,54.60
2023-04-04T01:05:14.358Z,54.67
2023-04-04T01:08:57.380Z,55.37
2023-04-04T01:12:41.674Z,54.41
2023-04-04T01:16:26.972Z,54.80
2023-04-04T01:20:13.353Z,54.92
2023-04-04T01:24:01.327Z,55.30
2023-04-04T01:27:45.713Z,55.15
2023-04-04T01:31:30.633Z,55.33
2023-04-04T01:35:21.561Z,55.35
2023-04-04T01:39:09.757Z,55.51
2023-04-04T01:42:53.963Z,56.04
2023-04-04T01:46:37.174Z,55.63
2023-04-04T01:50:19.984Z,56.12
2023-04-04T01:54:02.614Z,55.95
2023-04-04T01:57:46.096Z,56.19
2023-04-04T02:01:30.235Z,56.67
2023-04-04T02:05:13.035Z,56.69
2023-04-04T02:08:56.204Z,57.11
2023-04-04T02:12:39.987Z,57.22
2023-04-04T02:16:22.702Z,57.48
2023-04-04T02:20:08.351Z,57.00
2023-04-04T02:23:51.139Z,57.20
2023-04-04T02:27:34.066Z,57.73
2023-04-04T02:31:17.260Z,57.54
2023-04-04T02:34:59.984Z,57.69
2023-04-04T02:38:43.984Z,58.09
2023-04-04T02:42:26.624Z,58.29
2023-04-04T02:46:20.583Z,58.03
2023-04-04T02:50:04.210Z,57.87
2023-04-04T02:53:48.248Z,58.07
2023-04-04T02:57:30.918Z,58.81
2023-04-04T03:01:13.570Z,58.71
2023-04-04T03:04:56.208Z,59.10
2023-04-04T03:08:38.887Z,58.27
2023-04-04T03:12:22.881Z,59.30
2023-04-04T03:16:07.644Z,59.42
2023-04-04T03:19:50.362Z,59.46
2023-04-04T03:23:33.008Z,59.76
2023-04-04T03:27:16.198Z,59.98
2023-04-04T03:31:04.676Z,60.05
2023-04-04T03:34:47.453Z,59.52
2023-04-04T03:38:30.218Z,59.98
2023-04-04T03:42:13.119Z,60.04
2023-04-04T03:45:55.848Z,59.34
2023-04-04T03:49:39.886Z,59.53
2023-04-04T03:53:22.690Z,59.48
2023-04-04T03:57:05.568Z,60.29
2023-04-04T04:00:48.230Z,60.00
2023-04-04T04:04:31.027Z,59.66
2023-04-04T04:08:15.051Z,60.26
2023-04-04T04:11:57.758Z,60.35
2023-04-04T04:15:40.661Z,60.11
2023-04-04T04:19:23.513Z,60.15
2023-04-04T04:23:06.141Z,60.28
2023-04-04T04:26:50.428Z,60.20
2023-04-04T04:30:33.117Z,61.00
2023-04-04T04:34:15.835Z,60.40
2023-04-04T04:37:58.499Z,60.19
2023-04-04T04:41:41.532Z,61.22
2023-04-04T04:45:26.206Z,61.08
2023-04-04T04:49:09.072Z,61.03
2023-04-04T04:52:52.422Z,60.82
2023-04-04T04:56:35.136Z,61.92
2023-04-04T05:00:19.002Z,61.08
2023-04-04T05:04:03.185Z,61.78
2023-04-04T05:07:47.073Z,61.49
2023-04-04T05:11:29.717Z,61.67
2023-04-04T05:15:12.739Z,61.12
2023-04-04T05:18:55.404Z,61.23
2023-04-04T05:22:43.903Z,61.29
2023-04-04T05:26:26.556Z,61.51
2023-04-04T05:30:10.200Z,60.36
2023-04-04T05:33:53.879Z,60.90
2023-04-04T05:37:41.198Z,61.37
2023-04-04T05:41:23.824Z,61.13
2023-04-04T05:45:07.603Z,60.46
2023-04-04T05:48:51.987Z,59.92
2023-04-04T05:52:34.664Z,60.18
2023-04-04T05:56:18.793Z,59.64
2023-04-04T06:00:01.468Z,59.47
2023-04-04T06:03:44.084Z,59.81
2023-04-04T06:07:26.805Z,60.32
2023-04-04T06:11:09.460Z,59.90
2023-04-04T06:14:53.502Z,59.88
2023-04-04T06:18:36.140Z,59.82
2023-04-04T06:22:21.576Z,59.10
2023-04-04T06:26:05.880Z,59.59
2023-04-04T06:29:49.101Z,58.63
2023-04-04T06:33:33.040Z,58.44
2023-04-04T06:37:18.256Z,57.62
2023-04-04T06:41:00.953Z,58.09
2023-04-04T06:44:43.659Z,56.70
2023-04-04T06:48:28.436Z,56.31
2023-04-04T06:52:12.526Z,55.71
2023-04-04T06:55:58.033Z,55.56
2023-04-04T06:59:41.147Z,54.76
2023-04-04T07:03:24.780Z,54.42
2023-04-04T07:07:07.484Z,54.64
2023-04-04T07:10:51.562Z,53.78
2023-04-04T07:14:34.220Z,53.82
2023-04-04T07:18:16.936Z,52.94
2023-04-04T07:21:59.605Z,52.71
2023-04-04T07:25:44.967Z,53.40
2023-04-04T07:29:29.212Z,53.00
2023-04-04T07:33:11.998Z,52.92
2023-04-04T07:36:55.185Z,52.83
2023-04-04T07:40:38.182Z,52.57
2023-04-04T07:44:21.158Z,52.68
2023-04-04T07:48:05.726Z,51.88
2023-04-04T07:51:48.977Z,51.91
2023-04-04T07:55:31.631Z,51.40
2023-04-04T07:59:14.250Z,52.16
2023-04-04T08:03:01.574Z,50.14
2023-04-04T08:06:45.724Z,51.01
2023-04-04T08:10:28.359Z,49.70
2023-04-04T08:14:11.910Z,49.96
2023-04-04T08:17:56.092Z,49.99
2023-04-04T08:21:38.882Z,48.09
2023-04-04T08:25:23.024Z,47.96
2023-04-04T08:29:05.857Z,48.08
2023-04-04T08:32:48.728Z,47.67
2023-04-04T08:36:31.432Z,46.87
2023-04-04T08:40:14.417Z,46.32
2023-04-04T08:43:59.233Z,47.15
2023-04-04T08:47:42.973Z,45.50
2023-04-04T08:51:27.267Z,45.11
2023-04-04T08:55:11.169Z,44.94
2023-04-04T08:58:53.856Z,44.35
2023-04-04T09:02:43.456Z,44.00
2023-04-04T09:06:28.053Z,43.89
2023-04-04T09:10:12.075Z,43.71
2023-04-04T09:13:56.004Z,42.47
2023-04-04T09:17:40.094Z,42.58
2023-04-04T09:21:22.737Z,42.29
2023-04-04T09:25:09.473Z,42.14
2023-04-04T09:28:53.849Z,41.30
2023-04-04T09:32:36.516Z,41.25
2023-04-04T09:36:20.998Z,42.11
2023-04-04T09:40:08.311Z,41.64
2023-04-04T09:43:51.976Z,40.24
2023-04-04T09:47:36.424Z,41.70
2023-04-04T09:51:20.506Z,40.50
2023-04-04T09:55:04.375Z,40.68
2023-04-04T09:59:00.777Z,40.58
2023-04-04T10:02:48.678Z,39.90
2023-04-04T10:06:33.244Z,40.92
2023-04-04T10:10:16.554Z,40.97
2023-04-04T10:13:59.399Z,45.35
2023-04-04T10:17:44.016Z,43.55
2023-04-04T10:21:28.202Z,40.51
2023-04-04T10:25:12.359Z,42.24
2023-04-04T10:28:58.263Z,40.28
2023-04-04T10:32:48.504Z,40.63
2023-04-04T10:36:32.414Z,38.20
2023-04-04T10:40:19.455Z,37.32
2023-04-04T10:44:10.808Z,37.55
2023-04-04T10:47:54.200Z,39.53
2023-04-04T10:51:45.142Z,38.08
2023-04-04T10:55:39.092Z,37.84
2023-04-04T10:59:22.314Z,37.18
2023-04-04T11:03:05.614Z,39.20
2023-04-04T11:07:16.554Z,39.02
2023-04-04T11:11:05.010Z,38.81
2023-04-04T11:14:58.103Z,37.22
2023-04-04T11:18:47.405Z,38.37
2023-04-04T11:22:30.462Z,37.43
2023-04-04T11:26:14.638Z,37.76
2023-04-04T11:29:59.276Z,38.33
2023-04-04T11:33:56.069Z,38.57
2023-04-04T11:37:44.673Z,39.65
2023-04-04T11:41:44.984Z,39.46
2023-04-04T11:45:27.895Z,40.72
2023-04-04T11:49:11.318Z,40.24
2023-04-04T11:52:54.748Z,41.31
2023-04-04T11:56:39.032Z,40.33
2023-04-04T12:00:31.787Z,39.46
2023-04-04T12:04:16.745Z,39.38
2023-04-04T12:08:01.801Z,40.26
2023-04-04T12:11:46.826Z,37.96
2023-04-04T12:15:31.391Z,40.73
2023-04-04T12:19:14.072Z,40.18
2023-04-04T12:22:56.977Z,37.73
2023-04-04T12:26:40.868Z,37.97
2023-04-04T12:30:25.364Z,36.75
2023-04-04T12:34:08.472Z,38.26
2023-04-04T12:38:01.526Z,40.76
2023-04-04T12:41:53.273Z,38.58
2023-04-04T12:45:41.315Z,39.00
2023-04-04T12:49:24.291Z,38.95
2023-04-04T12:53:23.999Z,38.24
2023-04-04T12:57:15.313Z,37.78
2023-04-04T13:01:01.240Z,37.42
2023-04-04T13:04:46.434Z,37.08
2023-04-04T13:08:29.032Z,38.52
2023-04-04T13:12:12.824Z,35.58
2023-04-04T13:15:55.416Z,35.30
2023-04-04T13:19:39.436Z,34.13
2023-04-04T13:23:22.488Z,34.69
2023-04-04T13:27:05.250Z,34.83
2023-04-04T13:30:49.240Z,34.00
2023-04-04T13:34:32.793Z,32.69
2023-04-04T13:38:17.653Z,33.04
2023-04-04T13:42:02.080Z,31.38
2023-04-04T13:45:45.011Z,32.72
2023-04-04T13:49:27.703Z,32.69
2023-04-04T13:53:10.952Z,32.57
2023-04-04T13:56:55.836Z,31.82
2023-04-04T14:00:38.554Z,33.70
2023-04-04T14:04:24.082Z,32.43
2023-04-04T14:08:08.035Z,32.29
2023-04-04T14:11:50.669Z,31.82
2023-04-04T14:15:34.685Z,31.79
2023-04-04T14:19:17.316Z,32.23
2023-04-04T14:22:59.947Z,30.05
2023-04-04T14:26:42.661Z,31.33
2023-04-04T14:30:25.639Z,37.41
2023-04-04T14:34:10.383Z,30.82
2023-04-04T14:37:53.970Z,33.02
2023-04-04T14:41:37.870Z,31.36
2023-04-04T14:45:20.587Z,32.22
2023-04-04T14:49:05.698Z,28.67
2023-04-04T14:52:52.755Z,27.63
2023-04-04T14:56:36.212Z,28.23
2023-04-04T15:00:20.754Z,27.99
2023-04-04T15:04:03.737Z,29.75
2023-04-04T15:07:47.344Z,29.47
2023-04-04T15:11:31.344Z,28.92
2023-04-04T15:15:14.172Z,28.65
2023-04-04T15:18:57.155Z,28.10
2023-04-04T15:22:41.374Z,26.88
2023-04-04T15:26:24.639Z,27.19
2023-04-04T15:30:10.127Z,27.55
2023-04-04T15:33:55.065Z,26.85
2023-04-04T15:37:37.721Z,25.40
2023-04-04T15:41:20.461Z,24.97
2023-04-04T15:45:03.644Z,25.30
2023-04-04T15:48:48.234Z,25.06
2023-04-04T15:52:30.863Z,25.59
2023-04-04T15:56:14.224Z,27.30
2023-04-04T15:59:56.995Z,25.62
2023-04-04T16:03:39.818Z,25.70
2023-04-04T16:07:23.962Z,25.84
2023-04-04T16:11:06.868Z,26.61
2023-04-04T16:14:49.758Z,26.63
2023-04-04T16:18:32.401Z,26.88
2023-04-04T16:22:15.471Z,27.86
2023-04-04T16:25:59.503Z,29.01
2023-04-04T16:29:42.134Z,29.37
2023-04-04T16:33:24.871Z,30.72
2023-04-04T16:37:09.614Z,30.45
2023-04-04T16:40:52.290Z,30.27
2023-04-04T16:44:36.577Z,30.00
2023-04-04T16:48:19.222Z,30.24
2023-04-04T16:52:01.857Z,30.57
2023-04-04T16:55:44.483Z,31.40
2023-04-04T16:59:27.779Z,32.82
2023-04-04T17:03:12.016Z,32.51
2023-04-04T17:06:54.764Z,33.47
2023-04-04T17:10:40.349Z,33.20
2023-04-04T17:14:23.220Z,33.28
2023-04-04T17:18:06.205Z,33.82
2023-04-04T17:21:51.450Z,35.14
2023-04-04T17:25:34.047Z,34.94
2023-04-04T17:29:17.371Z,35.36
2023-04-04T17:33:00.171Z,36.03
2023-04-04T17:36:43.773Z,36.28
2023-04-04T17:40:27.847Z,36.77
2023-04-04T17:44:10.532Z,37.00
2023-04-04T17:47:53.438Z,37.31
2023-04-04T17:51:36.170Z,36.87
2023-04-04T17:55:18.834Z,37.21
2023-04-04T17:59:05.255Z,37.86
2023-04-04T18:02:48.130Z,38.66
2023-04-04T18:06:30.965Z,39.14
2023-04-04T18:10:13.615Z,38.52
2023-04-04T18:13:56.229Z,37.98
2023-04-04T18:17:41.172Z,38.25
2023-04-04T18:21:23.820Z,38.62
2023-04-04T18:25:07.380Z,38.79
2023-04-04T18:28:50.037Z,39.38
2023-04-04T18:32:32.712Z,39.19
2023-04-04T18:36:16.964Z,42.31
2023-04-04T18:39:59.649Z,42.13
2023-04-04T18:43:42.391Z,42.29
2023-04-04T18:47:25.030Z,41.67
2023-04-04T18:51:07.914Z,41.45
2023-04-04T18:54:52.129Z,41.41
2023-04-04T18:58:37.423Z,41.40
2023-04-04T19:02:20.041Z,41.87
2023-04-04T19:06:02.997Z,41.80
2023-04-04T19:09:46.029Z,41.79
2023-04-04T19:13:30.045Z,41.77
2023-04-04T19:17:15.423Z,41.74
2023-04-04T19:20:58.988Z,42.01
2023-04-04T19:24:42.275Z,42.14
2023-04-04T19:28:25.068Z,42.31
2023-04-04T19:32:14.092Z,42.58
2023-04-04T19:35:59.023Z,43.42
2023-04-04T19:39:43.656Z,47.26
2023-04-04T19:43:27.066Z,50.02
2023-04-04T19:47:12.120Z,44.26
2023-04-04T19:50:54.785Z,43.49
2023-04-04T19:54:41.531Z,43.11
2023-04-04T19:58:24.573Z,43.13
2023-04-04T20:02:08.122Z,43.39
2023-04-04T20:06:13.314Z,43.47
2023-04-04T20:09:59.599Z,43.71
2023-04-04T20:13:42.930Z,44.09
2023-04-04T20:17:25.634Z,43.22
2023-04-04T20:21:11.633Z,43.55
2023-04-04T20:24:54.792Z,43.28
2023-04-04T20:28:38.563Z,43.64
2023-04-04T20:32:21.250Z,43.58
2023-04-04T20:36:13.630Z,44.07
2023-04-04T20:39:58.710Z,44.25
2023-04-04T20:43:42.294Z,45.08
2023-04-04T20:47:42.032Z,44.59
2023-04-04T20:51:30.884Z,44.57
2023-04-04T20:55:13.673Z,44.56
2023-04-04T20:58:56.400Z,45.13
2023-04-04T21:02:39.842Z,45.32
2023-04-04T21:06:29.475Z,45.44
2023-04-04T21:10:25.799Z,45.65
2023-04-04T21:14:08.463Z,45.74
2023-04-04T21:17:51.256Z,46.29
2023-04-04T21:21:36.478Z,46.78
2023-04-04T21:25:26.956Z,46.60
2023-04-04T21:29:16.658Z,46.86
2023-04-04T21:32:59.382Z,47.18
2023-04-04T21:36:43.805Z,47.98
2023-04-04T21:40:26.696Z,48.03
2023-04-04T21:44:10.461Z,48.65
2023-04-04T21:47:53.106Z,49.17
2023-04-04T21:51:35.978Z,50.14
2023-04-04T21:55:21.475Z,50.45
2023-04-04T21:59:05.457Z,51.05
2023-04-04T22:02:48.175Z,51.32
2023-04-04T22:06:31.068Z,51.12
2023-04-04T22:10:13.783Z,50.88
2023-04-04T22:14:04.502Z,51.50
2023-04-04T22:17:50.953Z,51.68
2023-04-04T22:21:36.589Z,52.34
2023-04-04T22:25:19.857Z,52.61
2023-04-04T22:29:06.152Z,52.54
2023-04-04T22:32:48.815Z,53.38
2023-04-04T22:36:31.529Z,53.22
2023-04-04T22:40:14.253Z,53.51
2023-04-04T22:43:57.176Z,54.07
2023-04-04T22:47:47.185Z,53.26
2023-04-04T22:51:29.874Z,53.18
2023-04-04T22:55:12.860Z,52.75
2023-04-04T22:58:55.574Z,53.55
2023-04-04T23:02:38.805Z,54.15
2023-04-04T23:06:23.644Z,54.46
2023-04-04T23:10:07.353Z,54.73
2023-04-04T23:13:49.985Z,54.55
2023-04-04T23:17:33.173Z,55.20
2023-04-04T23:21:15.874Z,55.32
2023-04-04T23:24:59.936Z,54.98
2023-04-04T23:28:42.606Z,55.99
2023-04-04T23:32:25.226Z,55.93
2023-04-04T23:36:08.513Z,55.85
2023-04-04T23:39:54.048Z,55.59
2023-04-04T23:43:38.637Z,55.98
2023-04-04T23:47:21.497Z,56.33
2023-04-04T23:51:04.345Z,55.35
2023-04-04T23:54:50.026Z,55.93
2023-04-04T23:58:32.624Z,56.67
